Portada
METAR-TAF:

METAR-TAF

Aeroports :

Songkhla, Tailàndia

latitud: 07-12N, longitud: 100-36E, altitud: 4 m

Observació

L'informe es va fer fa 33 minuts, a les 00:00 UTC
Vent 4 kt del Est
Temperatura 29°C
Humitat 84%
Pressió 1009 hPa
Visibilitat 10 km o més
Escasses núvols a una alçada de 2000 ft

METAR: VTSH 040000Z 09004KT 9999 FEW020 29/26 Q1009 NOSIG

Hora: 07:33 (00:33 UTC)

Pronòstic

L'informe es va fer fa 1 hora i 33 minuts, a les 23:00 UTC
Pronòstic vàlid del 04 a les 00 UTC al 04 a les 24 UTC
Vent 10 kt del Est
Visibilitat 10 km o més
Escasses núvols a una alçada de 2000 ft

TAF: VTSH 032300Z 0400/0424 08010KT 9999 FEW020

Observacions i pronòstics meteorològics de més de 4000 aeroports (METAR i TAF).

Les estacions disponibles són els punts grocs i vermells al mapa.

Posi el ratolí al punt desitjat per veure el nom de l'estació.

Feu clic per veure les observacions i els pronòstics meteorològics.

Per canviar el mapa: feu clic els botons verds amb una creu de color negre per apropar; al botó verd amb un guió per allunyar la imatge; o en les fletxes verdes per a mapes adjacents.


METAR-TAF: